sensor_id;sensor_type;location;lat;lon;timestamp;temperature;humidity
23717;DHT22;22094;52.130;5.598;2022-10-16T00:01:10;12.00;99.90
23717;DHT22;22094;52.130;5.598;2022-10-16T00:03:37;12.00;99.90
23717;DHT22;22094;52.130;5.598;2022-10-16T00:06:03;12.00;99.90
23717;DHT22;22094;52.130;5.598;2022-10-16T00:08:29;12.00;99.90
23717;DHT22;22094;52.130;5.598;2022-10-16T00:11:12;12.00;99.90
23717;DHT22;22094;52.130;5.598;2022-10-16T00:13:40;12.10;99.90
23717;DHT22;22094;52.130;5.598;2022-10-16T00:16:06;12.10;99.90
23717;DHT22;22094;52.130;5.598;2022-10-16T00:18:32;12.10;99.90
23717;DHT22;22094;52.130;5.598;2022-10-16T00:21:04;12.10;99.90
23717;DHT22;22094;52.130;5.598;2022-10-16T00:23:30;12.20;99.90
23717;DHT22;22094;52.130;5.598;2022-10-16T00:26:03;12.20;99.90
23717;DHT22;22094;52.130;5.598;2022-10-16T00:28:29;12.10;99.90
23717;DHT22;22094;52.130;5.598;2022-10-16T00:30:55;12.20;99.90
23717;DHT22;22094;52.130;5.598;2022-10-16T00:33:21;12.20;99.90
23717;DHT22;22094;52.130;5.598;2022-10-16T00:35:47;12.20;99.90
23717;DHT22;22094;52.130;5.598;2022-10-16T00:38:13;12.20;99.90
23717;DHT22;22094;52.130;5.598;2022-10-16T00:40:39;12.20;99.90
23717;DHT22;22094;52.130;5.598;2022-10-16T00:43:33;12.20;99.90
23717;DHT22;22094;52.130;5.598;2022-10-16T00:46:01;12.20;99.90
23717;DHT22;22094;52.130;5.598;2022-10-16T00:48:27;12.20;99.90
23717;DHT22;22094;52.130;5.598;2022-10-16T00:50:53;12.30;99.90
23717;DHT22;22094;52.130;5.598;2022-10-16T00:53:19;12.30;99.90
23717;DHT22;22094;52.130;5.598;2022-10-16T00:55:45;12.40;99.90
23717;DHT22;22094;52.130;5.598;2022-10-16T00:58:11;12.50;99.90
23717;DHT22;22094;52.130;5.598;2022-10-16T01:00:37;12.50;99.90
23717;DHT22;22094;52.130;5.598;2022-10-16T01:03:21;12.50;99.90
23717;DHT22;22094;52.130;5.598;2022-10-16T01:05:52;12.50;99.90
23717;DHT22;22094;52.130;5.598;2022-10-16T01:08:28;12.60;99.90
23717;DHT22;22094;52.130;5.598;2022-10-16T01:11:11;12.60;99.90
23717;DHT22;22094;52.130;5.598;2022-10-16T01:13:43;12.60;99.90
23717;DHT22;22094;52.130;5.598;2022-10-16T01:19:01;12.70;99.90
23717;DHT22;22094;52.130;5.598;2022-10-16T01:21:38;12.70;99.90
23717;DHT22;22094;52.130;5.598;2022-10-16T01:24:17;12.80;99.90
23717;DHT22;22094;52.130;5.598;2022-10-16T01:27:07;12.80;99.90
23717;DHT22;22094;52.130;5.598;2022-10-16T01:32:17;12.80;99.90
23717;DHT22;22094;52.130;5.598;2022-10-16T01:34:52;12.80;99.90
23717;DHT22;22094;52.130;5.598;2022-10-16T01:37:29;12.80;99.90
23717;DHT22;22094;52.130;5.598;2022-10-16T01:39:59;12.90;99.90
23717;DHT22;22094;52.130;5.598;2022-10-16T01:42:32;12.90;99.90
23717;DHT22;22094;52.130;5.598;2022-10-16T01:45:00;12.90;99.90
23717;DHT22;22094;52.130;5.598;2022-10-16T01:47:27;12.90;99.90
23717;DHT22;22094;52.130;5.598;2022-10-16T01:49:55;13.00;99.90
23717;DHT22;22094;52.130;5.598;2022-10-16T01:52:25;13.00;99.90
23717;DHT22;22094;52.130;5.598;2022-10-16T01:54:53;13.30;99.90
23717;DHT22;22094;52.130;5.598;2022-10-16T01:57:21;13.00;99.90
23717;DHT22;22094;52.130;5.598;2022-10-16T01:59:52;13.00;99.90
23717;DHT22;22094;52.130;5.598;2022-10-16T02:02:20;13.00;99.90
23717;DHT22;22094;52.130;5.598;2022-10-16T02:04:54;13.10;99.90
23717;DHT22;22094;52.130;5.598;2022-10-16T02:07:23;13.00;99.90
23717;DHT22;22094;52.130;5.598;2022-10-16T02:09:49;13.00;99.90
23717;DHT22;22094;52.130;5.598;2022-10-16T02:12:35;13.00;99.90
23717;DHT22;22094;52.130;5.598;2022-10-16T02:15:03;13.00;99.90
23717;DHT22;22094;52.130;5.598;2022-10-16T02:17:28;13.00;99.90
23717;DHT22;22094;52.130;5.598;2022-10-16T02:19:55;13.00;99.90
23717;DHT22;22094;52.130;5.598;2022-10-16T02:22:28;13.00;99.90
23717;DHT22;22094;52.130;5.598;2022-10-16T02:25:03;13.00;99.90
23717;DHT22;22094;52.130;5.598;2022-10-16T02:27:53;13.00;99.90
23717;DHT22;22094;52.130;5.598;2022-10-16T02:30:34;13.00;99.90
23717;DHT22;22094;52.130;5.598;2022-10-16T02:33:03;13.10;99.90
23717;DHT22;22094;52.130;5.598;2022-10-16T02:35:30;13.00;99.90
23717;DHT22;22094;52.130;5.598;2022-10-16T02:37:56;13.10;99.90
23717;DHT22;22094;52.130;5.598;2022-10-16T02:40:24;13.20;99.90
23717;DHT22;22094;52.130;5.598;2022-10-16T02:42:51;13.10;99.90
23717;DHT22;22094;52.130;5.598;2022-10-16T02:45:18;13.10;99.90
23717;DHT22;22094;52.130;5.598;2022-10-16T02:47:43;13.00;99.90
23717;DHT22;22094;52.130;5.598;2022-10-16T02:50:09;13.40;99.90
23717;DHT22;22094;52.130;5.598;2022-10-16T02:52:35;13.00;99.90
23717;DHT22;22094;52.130;5.598;2022-10-16T02:55:00;13.00;99.90
23717;DHT22;22094;52.130;5.598;2022-10-16T02:57:26;13.00;99.90
23717;DHT22;22094;52.130;5.598;2022-10-16T02:59:52;13.10;99.90
23717;DHT22;22094;52.130;5.598;2022-10-16T03:02:18;13.00;99.90
23717;DHT22;22094;52.130;5.598;2022-10-16T03:04:44;13.00;99.90
23717;DHT22;22094;52.130;5.598;2022-10-16T03:07:09;12.90;99.90
23717;DHT22;22094;52.130;5.598;2022-10-16T03:09:35;12.90;99.90
23717;DHT22;22094;52.130;5.598;2022-10-16T03:12:00;13.30;99.90
23717;DHT22;22094;52.130;5.598;2022-10-16T03:14:26;12.90;99.90
23717;DHT22;22094;52.130;5.598;2022-10-16T03:16:52;12.70;99.90
23717;DHT22;22094;52.130;5.598;2022-10-16T03:19:18;12.80;99.90
23717;DHT22;22094;52.130;5.598;2022-10-16T03:21:44;13.00;99.90
23717;DHT22;22094;52.130;5.598;2022-10-16T03:24:10;12.80;99.90
23717;DHT22;22094;52.130;5.598;2022-10-16T03:26:35;12.80;99.90
23717;DHT22;22094;52.130;5.598;2022-10-16T03:29:02;12.80;99.90
23717;DHT22;22094;52.130;5.598;2022-10-16T03:31:29;12.70;99.90
23717;DHT22;22094;52.130;5.598;2022-10-16T03:33:54;12.90;99.90
23717;DHT22;22094;52.130;5.598;2022-10-16T03:36:20;12.60;99.90
23717;DHT22;22094;52.130;5.598;2022-10-16T03:38:45;12.60;99.90
23717;DHT22;22094;52.130;5.598;2022-10-16T03:41:11;12.60;99.90
23717;DHT22;22094;52.130;5.598;2022-10-16T03:43:36;12.60;99.90
23717;DHT22;22094;52.130;5.598;2022-10-16T03:46:02;12.60;99.90
23717;DHT22;22094;52.130;5.598;2022-10-16T03:48:28;12.60;99.90
23717;DHT22;22094;52.130;5.598;2022-10-16T03:50:54;12.70;99.90
23717;DHT22;22094;52.130;5.598;2022-10-16T03:53:20;12.90;99.90
23717;DHT22;22094;52.130;5.598;2022-10-16T03:55:46;12.60;99.90
23717;DHT22;22094;52.130;5.598;2022-10-16T03:58:12;12.70;99.90
23717;DHT22;22094;52.130;5.598;2022-10-16T04:00:46;12.60;99.90
23717;DHT22;22094;52.130;5.598;2022-10-16T04:03:13;12.60;99.90
23717;DHT22;22094;52.130;5.598;2022-10-16T04:05:38;12.60;99.90
23717;DHT22;22094;52.130;5.598;2022-10-16T04:08:04;12.50;99.90
23717;DHT22;22094;52.130;5.598;2022-10-16T04:10:30;12.70;99.90
23717;DHT22;22094;52.130;5.598;2022-10-16T04:12:55;12.40;99.90
23717;DHT22;22094;52.130;5.598;2022-10-16T04:15:25;12.40;99.90
23717;DHT22;22094;52.130;5.598;2022-10-16T04:17:51;12.30;99.90
23717;DHT22;22094;52.130;5.598;2022-10-16T04:20:17;12.30;99.90
23717;DHT22;22094;52.130;5.598;2022-10-16T04:22:42;12.50;99.90
23717;DHT22;22094;52.130;5.598;2022-10-16T04:25:08;12.30;99.90
23717;DHT22;22094;52.130;5.598;2022-10-16T04:27:34;12.20;99.90
23717;DHT22;22094;52.130;5.598;2022-10-16T04:30:00;12.30;99.90
23717;DHT22;22094;52.130;5.598;2022-10-16T04:32:26;12.60;99.90
23717;DHT22;22094;52.130;5.598;2022-10-16T04:34:52;12.20;99.90
23717;DHT22;22094;52.130;5.598;2022-10-16T04:37:18;12.20;99.90
23717;DHT22;22094;52.130;5.598;2022-10-16T04:39:43;12.20;99.90
23717;DHT22;22094;52.130;5.598;2022-10-16T04:42:10;12.20;99.90
23717;DHT22;22094;52.130;5.598;2022-10-16T04:44:35;12.10;99.90
23717;DHT22;22094;52.130;5.598;2022-10-16T04:47:01;12.30;99.90
23717;DHT22;22094;52.130;5.598;2022-10-16T04:49:27;12.20;99.90
23717;DHT22;22094;52.130;5.598;2022-10-16T04:51:52;12.00;99.90
23717;DHT22;22094;52.130;5.598;2022-10-16T04:54:18;12.30;99.90
23717;DHT22;22094;52.130;5.598;2022-10-16T04:56:43;12.10;99.90
23717;DHT22;22094;52.130;5.598;2022-10-16T04:59:14;12.10;99.90
23717;DHT22;22094;52.130;5.598;2022-10-16T05:01:39;12.50;99.90
23717;DHT22;22094;52.130;5.598;2022-10-16T05:04:05;12.10;99.90
23717;DHT22;22094;52.130;5.598;2022-10-16T05:06:30;12.20;99.90
23717;DHT22;22094;52.130;5.598;2022-10-16T05:08:56;12.10;99.90
23717;DHT22;22094;52.130;5.598;2022-10-16T05:11:22;12.10;99.90
23717;DHT22;22094;52.130;5.598;2022-10-16T05:13:47;12.10;99.90
23717;DHT22;22094;52.130;5.598;2022-10-16T05:16:13;12.10;99.90
23717;DHT22;22094;52.130;5.598;2022-10-16T05:18:38;12.00;99.90
23717;DHT22;22094;52.130;5.598;2022-10-16T05:21:07;12.10;99.90
23717;DHT22;22094;52.130;5.598;2022-10-16T05:23:33;12.30;99.90
23717;DHT22;22094;52.130;5.598;2022-10-16T05:25:59;11.90;99.90
23717;DHT22;22094;52.130;5.598;2022-10-16T05:28:26;12.00;99.90
23717;DHT22;22094;52.130;5.598;2022-10-16T05:33:45;11.90;99.90
23717;DHT22;22094;52.130;5.598;2022-10-16T05:36:10;12.20;99.90
23717;DHT22;22094;52.130;5.598;2022-10-16T05:38:37;11.80;99.90
23717;DHT22;22094;52.130;5.598;2022-10-16T05:41:04;11.80;99.90
23717;DHT22;22094;52.130;5.598;2022-10-16T05:43:30;11.70;99.90
23717;DHT22;22094;52.130;5.598;2022-10-16T05:46:02;11.70;99.90
23717;DHT22;22094;52.130;5.598;2022-10-16T05:48:27;11.70;99.90
23717;DHT22;22094;52.130;5.598;2022-10-16T05:51:05;11.70;99.90
23717;DHT22;22094;52.130;5.598;2022-10-16T05:53:34;11.70;99.90
23717;DHT22;22094;52.130;5.598;2022-10-16T05:55:59;12.00;99.90
23717;DHT22;22094;52.130;5.598;2022-10-16T05:58:28;11.70;99.90
23717;DHT22;22094;52.130;5.598;2022-10-16T06:01:06;11.70;99.90
23717;DHT22;22094;52.130;5.598;2022-10-16T06:03:33;11.80;99.90
23717;DHT22;22094;52.130;5.598;2022-10-16T06:05:59;11.80;99.90
23717;DHT22;22094;52.130;5.598;2022-10-16T06:08:24;11.90;99.90
23717;DHT22;22094;52.130;5.598;2022-10-16T06:11:01;12.00;99.90
23717;DHT22;22094;52.130;5.598;2022-10-16T06:13:27;12.10;99.90
23717;DHT22;22094;52.130;5.598;2022-10-16T06:15:53;12.10;99.90
23717;DHT22;22094;52.130;5.598;2022-10-16T06:18:18;12.10;99.90
23717;DHT22;22094;52.130;5.598;2022-10-16T06:20:44;12.20;99.90
23717;DHT22;22094;52.130;5.598;2022-10-16T06:23:09;12.20;99.90
23717;DHT22;22094;52.130;5.598;2022-10-16T06:25:35;12.20;99.90
23717;DHT22;22094;52.130;5.598;2022-10-16T06:28:00;12.20;99.90
23717;DHT22;22094;52.130;5.598;2022-10-16T06:30:26;12.20;99.90
23717;DHT22;22094;52.130;5.598;2022-10-16T06:32:51;12.30;99.90
23717;DHT22;22094;52.130;5.598;2022-10-16T06:35:17;12.40;99.90
23717;DHT22;22094;52.130;5.598;2022-10-16T06:37:42;12.40;99.90
23717;DHT22;22094;52.130;5.598;2022-10-16T06:40:08;12.50;99.90
23717;DHT22;22094;52.130;5.598;2022-10-16T06:42:34;10.60;99.90
23717;DHT22;22094;52.130;5.598;2022-10-16T06:44:59;15.00;99.90
23717;DHT22;22094;52.130;5.598;2022-10-16T06:49:51;15.10;99.90
23717;DHT22;22094;52.130;5.598;2022-10-16T06:52:16;15.10;99.90
23717;DHT22;22094;52.130;5.598;2022-10-16T06:54:42;12.70;99.90
23717;DHT22;22094;52.130;5.598;2022-10-16T06:59:33;12.90;99.90
23717;DHT22;22094;52.130;5.598;2022-10-16T07:06:51;13.20;99.90
23717;DHT22;22094;52.130;5.598;2022-10-16T07:09:17;13.10;99.90
23717;DHT22;22094;52.130;5.598;2022-10-16T07:14:26;13.20;99.90
23717;DHT22;22094;52.130;5.598;2022-10-16T07:16:53;13.30;99.90
23717;DHT22;22094;52.130;5.598;2022-10-16T07:19:18;15.70;99.90
23717;DHT22;22094;52.130;5.598;2022-10-16T07:21:44;13.30;99.90
23717;DHT22;22094;52.130;5.598;2022-10-16T07:24:15;13.10;99.90
23717;DHT22;22094;52.130;5.598;2022-10-16T07:26:42;15.50;99.90
23717;DHT22;22094;52.130;5.598;2022-10-16T07:29:17;15.40;99.90
23717;DHT22;22094;52.130;5.598;2022-10-16T07:31:43;13.20;99.90
23717;DHT22;22094;52.130;5.598;2022-10-16T07:34:13;13.20;99.90
23717;DHT22;22094;52.130;5.598;2022-10-16T07:39:06;13.40;99.90
23717;DHT22;22094;52.130;5.598;2022-10-16T07:43:58;13.30;99.90
23717;DHT22;22094;52.130;5.598;2022-10-16T07:51:23;13.70;99.90
23717;DHT22;22094;52.130;5.598;2022-10-16T07:56:16;14.80;99.90
23717;DHT22;22094;52.130;5.598;2022-10-16T07:58:42;13.30;99.90
23717;DHT22;22094;52.130;5.598;2022-10-16T08:01:10;13.80;99.90
23717;DHT22;22094;52.130;5.598;2022-10-16T08:03:37;14.30;99.90
23717;DHT22;22094;52.130;5.598;2022-10-16T08:06:03;13.80;99.90
23717;DHT22;22094;52.130;5.598;2022-10-16T08:10:55;14.30;99.90
23717;DHT22;22094;52.130;5.598;2022-10-16T08:15:49;14.00;99.90
23717;DHT22;22094;52.130;5.598;2022-10-16T08:20:42;13.90;99.90
23717;DHT22;22094;52.130;5.598;2022-10-16T08:23:10;16.20;99.90
23717;DHT22;22094;52.130;5.598;2022-10-16T08:28:04;14.90;99.90
23717;DHT22;22094;52.130;5.598;2022-10-16T08:30:31;13.30;99.90
23717;DHT22;22094;52.130;5.598;2022-10-16T08:35:23;16.90;99.90
23717;DHT22;22094;52.130;5.598;2022-10-16T08:40:29;16.40;99.90
23717;DHT22;22094;52.130;5.598;2022-10-16T08:43:54;13.80;99.90
23717;DHT22;22094;52.130;5.598;2022-10-16T08:48:49;16.20;99.90
23717;DHT22;22094;52.130;5.598;2022-10-16T08:51:35;15.20;99.90
23717;DHT22;22094;52.130;5.598;2022-10-16T08:54:10;15.60;99.90
23717;DHT22;22094;52.130;5.598;2022-10-16T08:56:36;14.50;99.90
23717;DHT22;22094;52.130;5.598;2022-10-16T08:59:04;15.70;99.90
23717;DHT22;22094;52.130;5.598;2022-10-16T09:01:40;16.20;99.90
23717;DHT22;22094;52.130;5.598;2022-10-16T09:06:50;15.80;99.90
23717;DHT22;22094;52.130;5.598;2022-10-16T09:12:16;15.90;99.90
23717;DHT22;22094;52.130;5.598;2022-10-16T09:15:07;16.00;99.90
23717;DHT22;22094;52.130;5.598;2022-10-16T09:22:36;18.10;99.90
23717;DHT22;22094;52.130;5.598;2022-10-16T09:25:17;16.10;99.90
23717;DHT22;22094;52.130;5.598;2022-10-16T09:27:48;16.10;99.90
23717;DHT22;22094;52.130;5.598;2022-10-16T09:30:18;16.20;99.90
23717;DHT22;22094;52.130;5.598;2022-10-16T09:35:20;16.30;99.90
23717;DHT22;22094;52.130;5.598;2022-10-16T09:45:23;15.50;99.90
23717;DHT22;22094;52.130;5.598;2022-10-16T09:53:12;16.80;99.90
23717;DHT22;22094;52.130;5.598;2022-10-16T10:00:41;16.50;99.90
23717;DHT22;22094;52.130;5.598;2022-10-16T10:03:46;16.90;99.90
23717;DHT22;22094;52.130;5.598;2022-10-16T10:06:23;16.90;99.90
23717;DHT22;22094;52.130;5.598;2022-10-16T10:11:54;17.10;99.90
23717;DHT22;22094;52.130;5.598;2022-10-16T10:16:47;17.40;99.90
23717;DHT22;22094;52.130;5.598;2022-10-16T10:19:18;17.40;99.90
23717;DHT22;22094;52.130;5.598;2022-10-16T10:26:38;17.70;99.90
23717;DHT22;22094;52.130;5.598;2022-10-16T10:29:26;17.20;99.90
23717;DHT22;22094;52.130;5.598;2022-10-16T10:37:50;17.90;99.90
23717;DHT22;22094;52.130;5.598;2022-10-16T10:42:57;17.60;99.90
23717;DHT22;22094;52.130;5.598;2022-10-16T10:48:06;17.50;99.90
23717;DHT22;22094;52.130;5.598;2022-10-16T10:50:43;17.60;99.90
23717;DHT22;22094;52.130;5.598;2022-10-16T10:54:20;17.50;99.90
23717;DHT22;22094;52.130;5.598;2022-10-16T10:59:48;17.50;99.90
23717;DHT22;22094;52.130;5.598;2022-10-16T11:08:37;17.80;99.90
23717;DHT22;22094;52.130;5.598;2022-10-16T11:16:31;16.80;99.90
23717;DHT22;22094;52.130;5.598;2022-10-16T11:30:23;18.40;99.90
23717;DHT22;22094;52.130;5.598;2022-10-16T11:40:49;19.10;99.90
23717;DHT22;22094;52.130;5.598;2022-10-16T11:43:26;19.10;99.90
23717;DHT22;22094;52.130;5.598;2022-10-16T11:46:00;19.20;99.90
23717;DHT22;22094;52.130;5.598;2022-10-16T11:51:40;19.10;99.90
23717;DHT22;22094;52.130;5.598;2022-10-16T12:02:26;19.00;99.90
23717;DHT22;22094;52.130;5.598;2022-10-16T12:10:24;17.50;99.90
23717;DHT22;22094;52.130;5.598;2022-10-16T12:25:31;18.70;99.90
23717;DHT22;22094;52.130;5.598;2022-10-16T12:28:06;19.00;99.90
23717;DHT22;22094;52.130;5.598;2022-10-16T12:30:52;19.20;99.90
23717;DHT22;22094;52.130;5.598;2022-10-16T12:38:21;19.50;99.90
23717;DHT22;22094;52.130;5.598;2022-10-16T12:41:01;19.40;99.90
23717;DHT22;22094;52.130;5.598;2022-10-16T12:46:26;18.80;99.90
23717;DHT22;22094;52.130;5.598;2022-10-16T13:04:31;19.20;99.90
23717;DHT22;22094;52.130;5.598;2022-10-16T13:17:59;19.40;99.90
23717;DHT22;22094;52.130;5.598;2022-10-16T13:33:50;19.30;99.90
23717;DHT22;22094;52.130;5.598;2022-10-16T13:44:15;19.40;99.90
23717;DHT22;22094;52.130;5.598;2022-10-16T13:49:15;19.30;99.90
23717;DHT22;22094;52.130;5.598;2022-10-16T13:54:09;19.00;99.90
23717;DHT22;22094;52.130;5.598;2022-10-16T13:59:04;18.90;99.90
23717;DHT22;22094;52.130;5.598;2022-10-16T14:04:05;19.00;99.90
23717;DHT22;22094;52.130;5.598;2022-10-16T14:11:49;19.00;99.90
23717;DHT22;22094;52.130;5.598;2022-10-16T14:16:43;18.80;99.90
23717;DHT22;22094;52.130;5.598;2022-10-16T14:22:25;18.90;99.90
23717;DHT22;22094;52.130;5.598;2022-10-16T14:27:37;19.10;99.90
23717;DHT22;22094;52.130;5.598;2022-10-16T14:30:13;18.90;99.90
23717;DHT22;22094;52.130;5.598;2022-10-16T14:32:54;19.00;99.90
23717;DHT22;22094;52.130;5.598;2022-10-16T14:35:25;19.00;99.90
23717;DHT22;22094;52.130;5.598;2022-10-16T14:37:53;19.20;99.90
23717;DHT22;22094;52.130;5.598;2022-10-16T14:42:45;19.40;99.90
23717;DHT22;22094;52.130;5.598;2022-10-16T14:47:47;19.70;99.90
23717;DHT22;22094;52.130;5.598;2022-10-16T14:57:33;19.30;99.90
23717;DHT22;22094;52.130;5.598;2022-10-16T15:02:30;19.10;99.90
23717;DHT22;22094;52.130;5.598;2022-10-16T15:12:15;20.00;99.90
23717;DHT22;22094;52.130;5.598;2022-10-16T15:17:10;19.30;99.90
23717;DHT22;22094;52.130;5.598;2022-10-16T15:39:15;18.20;99.90
23717;DHT22;22094;52.130;5.598;2022-10-16T15:44:07;19.00;99.90
23717;DHT22;22094;52.130;5.598;2022-10-16T15:49:00;17.20;99.90
23717;DHT22;22094;52.130;5.598;2022-10-16T15:51:27;17.20;99.90
23717;DHT22;22094;52.130;5.598;2022-10-16T15:56:24;17.30;99.90
23717;DHT22;22094;52.130;5.598;2022-10-16T15:58:51;16.70;99.90
23717;DHT22;22094;52.130;5.598;2022-10-16T16:06:11;16.40;99.90
23717;DHT22;22094;52.130;5.598;2022-10-16T16:11:07;16.30;99.90
23717;DHT22;22094;52.130;5.598;2022-10-16T16:13:33;16.00;99.90
23717;DHT22;22094;52.130;5.598;2022-10-16T16:15:59;16.00;99.90
23717;DHT22;22094;52.130;5.598;2022-10-16T16:18:24;15.90;99.90
23717;DHT22;22094;52.130;5.598;2022-10-16T16:20:51;15.80;99.90
23717;DHT22;22094;52.130;5.598;2022-10-16T16:23:17;15.80;99.90
23717;DHT22;22094;52.130;5.598;2022-10-16T16:25:44;15.80;99.90
23717;DHT22;22094;52.130;5.598;2022-10-16T16:28:10;15.70;99.90
23717;DHT22;22094;52.130;5.598;2022-10-16T16:30:39;15.70;99.90
23717;DHT22;22094;52.130;5.598;2022-10-16T16:33:05;15.70;99.90
23717;DHT22;22094;52.130;5.598;2022-10-16T16:35:31;15.60;99.90
23717;DHT22;22094;52.130;5.598;2022-10-16T16:37:56;15.50;99.90
23717;DHT22;22094;52.130;5.598;2022-10-16T16:40:22;15.40;99.90
23717;DHT22;22094;52.130;5.598;2022-10-16T16:42:48;15.30;99.90
23717;DHT22;22094;52.130;5.598;2022-10-16T16:45:14;15.30;99.90
23717;DHT22;22094;52.130;5.598;2022-10-16T16:47:40;15.30;99.90
23717;DHT22;22094;52.130;5.598;2022-10-16T16:50:06;15.20;99.90
23717;DHT22;22094;52.130;5.598;2022-10-16T16:52:32;15.10;99.90
23717;DHT22;22094;52.130;5.598;2022-10-16T16:54:58;15.10;99.90
23717;DHT22;22094;52.130;5.598;2022-10-16T16:57:24;15.00;99.90
23717;DHT22;22094;52.130;5.598;2022-10-16T16:59:50;15.00;99.90
23717;DHT22;22094;52.130;5.598;2022-10-16T17:02:17;14.80;99.90
23717;DHT22;22094;52.130;5.598;2022-10-16T17:04:42;14.80;99.90
23717;DHT22;22094;52.130;5.598;2022-10-16T17:07:08;14.80;99.90
23717;DHT22;22094;52.130;5.598;2022-10-16T17:09:34;14.70;99.90
23717;DHT22;22094;52.130;5.598;2022-10-16T17:11:59;14.60;99.90
23717;DHT22;22094;52.130;5.598;2022-10-16T17:14:25;14.60;99.90
23717;DHT22;22094;52.130;5.598;2022-10-16T17:16:53;14.50;99.90
23717;DHT22;22094;52.130;5.598;2022-10-16T17:19:19;14.50;99.90
23717;DHT22;22094;52.130;5.598;2022-10-16T17:21:48;14.40;99.90
23717;DHT22;22094;52.130;5.598;2022-10-16T17:24:14;14.40;99.90
23717;DHT22;22094;52.130;5.598;2022-10-16T17:26:40;14.40;99.90
23717;DHT22;22094;52.130;5.598;2022-10-16T17:29:11;14.30;99.90
23717;DHT22;22094;52.130;5.598;2022-10-16T17:31:37;14.30;99.90
23717;DHT22;22094;52.130;5.598;2022-10-16T17:34:05;14.30;99.90
23717;DHT22;22094;52.130;5.598;2022-10-16T17:36:33;14.30;99.90
23717;DHT22;22094;52.130;5.598;2022-10-16T17:39:05;14.20;99.90
23717;DHT22;22094;52.130;5.598;2022-10-16T17:41:32;14.30;99.90
23717;DHT22;22094;52.130;5.598;2022-10-16T17:43:58;14.30;99.90
23717;DHT22;22094;52.130;5.598;2022-10-16T17:46:24;14.30;99.90
23717;DHT22;22094;52.130;5.598;2022-10-16T17:48:51;14.30;99.90
23717;DHT22;22094;52.130;5.598;2022-10-16T17:51:24;14.30;99.90
23717;DHT22;22094;52.130;5.598;2022-10-16T17:53:52;14.30;99.90
23717;DHT22;22094;52.130;5.598;2022-10-16T17:56:18;14.30;99.90
23717;DHT22;22094;52.130;5.598;2022-10-16T17:58:48;14.20;99.90
23717;DHT22;22094;52.130;5.598;2022-10-16T18:01:19;14.30;99.90
23717;DHT22;22094;52.130;5.598;2022-10-16T18:03:49;14.30;99.90
23717;DHT22;22094;52.130;5.598;2022-10-16T18:06:15;14.30;99.90
23717;DHT22;22094;52.130;5.598;2022-10-16T18:08:41;14.30;99.90
23717;DHT22;22094;52.130;5.598;2022-10-16T18:11:06;14.30;99.90
23717;DHT22;22094;52.130;5.598;2022-10-16T18:13:33;14.30;99.90
23717;DHT22;22094;52.130;5.598;2022-10-16T18:16:04;14.30;99.90
23717;DHT22;22094;52.130;5.598;2022-10-16T18:18:30;14.20;99.90
23717;DHT22;22094;52.130;5.598;2022-10-16T18:20:59;14.20;99.90
23717;DHT22;22094;52.130;5.598;2022-10-16T18:23:26;14.20;99.90
23717;DHT22;22094;52.130;5.598;2022-10-16T18:25:52;14.10;99.90
23717;DHT22;22094;52.130;5.598;2022-10-16T18:28:18;14.30;99.90
23717;DHT22;22094;52.130;5.598;2022-10-16T18:30:44;14.10;99.90
23717;DHT22;22094;52.130;5.598;2022-10-16T18:33:10;14.10;99.90
23717;DHT22;22094;52.130;5.598;2022-10-16T18:35:36;14.10;99.90
23717;DHT22;22094;52.130;5.598;2022-10-16T18:38:01;14.10;99.90
23717;DHT22;22094;52.130;5.598;2022-10-16T18:40:27;14.00;99.90
23717;DHT22;22094;52.130;5.598;2022-10-16T18:42:52;14.10;99.90
23717;DHT22;22094;52.130;5.598;2022-10-16T18:45:19;14.20;99.90
23717;DHT22;22094;52.130;5.598;2022-10-16T18:47:44;14.00;99.90
23717;DHT22;22094;52.130;5.598;2022-10-16T18:50:10;14.00;99.90
23717;DHT22;22094;52.130;5.598;2022-10-16T18:52:36;14.00;99.90
23717;DHT22;22094;52.130;5.598;2022-10-16T18:55:02;14.00;99.90
23717;DHT22;22094;52.130;5.598;2022-10-16T18:57:28;14.00;99.90
23717;DHT22;22094;52.130;5.598;2022-10-16T18:59:56;14.00;99.90
23717;DHT22;22094;52.130;5.598;2022-10-16T19:02:22;14.00;99.90
23717;DHT22;22094;52.130;5.598;2022-10-16T19:04:47;14.00;99.90
23717;DHT22;22094;52.130;5.598;2022-10-16T19:07:13;14.00;99.90
23717;DHT22;22094;52.130;5.598;2022-10-16T19:09:40;14.00;99.90
23717;DHT22;22094;52.130;5.598;2022-10-16T19:12:06;14.00;99.90
23717;DHT22;22094;52.130;5.598;2022-10-16T19:14:32;14.00;99.90
23717;DHT22;22094;52.130;5.598;2022-10-16T19:16:58;14.00;99.90
23717;DHT22;22094;52.130;5.598;2022-10-16T19:19:24;14.00;99.90
23717;DHT22;22094;52.130;5.598;2022-10-16T19:21:50;14.00;99.90
23717;DHT22;22094;52.130;5.598;2022-10-16T19:24:20;13.90;99.90
23717;DHT22;22094;52.130;5.598;2022-10-16T19:26:46;13.90;99.90
23717;DHT22;22094;52.130;5.598;2022-10-16T19:29:12;14.00;99.90
23717;DHT22;22094;52.130;5.598;2022-10-16T19:31:38;14.00;99.90
23717;DHT22;22094;52.130;5.598;2022-10-16T19:34:05;14.10;99.90
23717;DHT22;22094;52.130;5.598;2022-10-16T19:36:36;14.00;99.90
23717;DHT22;22094;52.130;5.598;2022-10-16T19:39:05;13.90;99.90
23717;DHT22;22094;52.130;5.598;2022-10-16T19:41:36;13.90;99.90
23717;DHT22;22094;52.130;5.598;2022-10-16T19:44:04;13.90;99.90
23717;DHT22;22094;52.130;5.598;2022-10-16T19:46:31;13.90;99.90
23717;DHT22;22094;52.130;5.598;2022-10-16T19:49:00;14.00;99.90
23717;DHT22;22094;52.130;5.598;2022-10-16T19:51:27;13.90;99.90
23717;DHT22;22094;52.130;5.598;2022-10-16T19:53:55;13.90;99.90
23717;DHT22;22094;52.130;5.598;2022-10-16T19:56:22;13.90;99.90
23717;DHT22;22094;52.130;5.598;2022-10-16T19:58:49;13.90;99.90
23717;DHT22;22094;52.130;5.598;2022-10-16T20:01:17;14.00;99.90
23717;DHT22;22094;52.130;5.598;2022-10-16T20:03:44;14.00;99.90
23717;DHT22;22094;52.130;5.598;2022-10-16T20:06:10;13.80;99.90
23717;DHT22;22094;52.130;5.598;2022-10-16T20:08:37;13.80;99.90
23717;DHT22;22094;52.130;5.598;2022-10-16T20:11:04;13.80;99.90
23717;DHT22;22094;52.130;5.598;2022-10-16T20:13:31;13.70;99.90
23717;DHT22;22094;52.130;5.598;2022-10-16T20:15:56;13.70;99.90
23717;DHT22;22094;52.130;5.598;2022-10-16T20:18:22;13.80;99.90
23717;DHT22;22094;52.130;5.598;2022-10-16T20:20:48;13.60;99.90
23717;DHT22;22094;52.130;5.598;2022-10-16T20:23:16;13.60;99.90
23717;DHT22;22094;52.130;5.598;2022-10-16T20:25:42;13.60;99.90
23717;DHT22;22094;52.130;5.598;2022-10-16T20:28:10;13.60;99.90
23717;DHT22;22094;52.130;5.598;2022-10-16T20:30:44;13.60;99.90
23717;DHT22;22094;52.130;5.598;2022-10-16T20:33:11;13.60;99.90
23717;DHT22;22094;52.130;5.598;2022-10-16T20:35:45;13.60;99.90
23717;DHT22;22094;52.130;5.598;2022-10-16T20:38:12;13.50;99.90
23717;DHT22;22094;52.130;5.598;2022-10-16T20:40:40;13.70;99.90
23717;DHT22;22094;52.130;5.598;2022-10-16T20:43:06;13.50;99.90